createdAt,value
2018-05-16T00:00:43.337Z,12.86
2018-05-16T00:01:43.263Z,12.79
2018-05-16T00:02:43.189Z,12.82
2018-05-16T00:03:43.114Z,12.81
2018-05-16T00:04:43.039Z,12.81
2018-05-16T00:05:42.966Z,12.81
2018-05-16T00:06:42.891Z,12.79
2018-05-16T00:07:42.816Z,12.81
2018-05-16T00:08:42.742Z,12.77
2018-05-16T00:09:42.668Z,12.79
2018-05-16T00:10:42.593Z,12.82
2018-05-16T00:11:42.518Z,12.89
2018-05-16T00:12:42.444Z,12.92
2018-05-16T00:13:42.370Z,12.94
2018-05-16T00:14:42.297Z,12.99
2018-05-16T00:15:42.220Z,13.03
2018-05-16T00:16:42.146Z,13.02
2018-05-16T00:17:42.072Z,12.92
2018-05-16T00:18:41.997Z,12.89
2018-05-16T00:19:41.928Z,12.84
2018-05-16T00:20:41.857Z,12.85
2018-05-16T00:21:41.775Z,12.86
2018-05-16T00:22:41.700Z,12.91
2018-05-16T00:23:41.625Z,12.97
2018-05-16T00:24:41.551Z,12.99
2018-05-16T00:25:41.477Z,13.04
2018-05-16T00:26:41.404Z,12.96
2018-05-16T00:27:41.383Z,12.86
2018-05-16T00:28:41.254Z,12.88
2018-05-16T00:29:41.182Z,12.94
2018-05-16T00:30:41.106Z,12.91
2018-05-16T00:31:41.031Z,12.81
2018-05-16T00:32:40.956Z,12.85
2018-05-16T00:33:40.887Z,12.82
2018-05-16T00:34:40.808Z,12.84
2018-05-16T00:35:40.733Z,12.82
2018-05-16T00:36:40.659Z,12.82
2018-05-16T00:37:40.585Z,12.82
2018-05-16T00:38:40.510Z,12.86
2018-05-16T00:39:40.438Z,12.92
2018-05-16T00:40:40.360Z,12.91
2018-05-16T00:41:40.286Z,12.89
2018-05-16T00:42:40.213Z,12.86
2018-05-16T00:43:40.137Z,12.91
2018-05-16T00:44:40.063Z,12.88
2018-05-16T00:45:39.989Z,12.86
2018-05-16T00:46:39.914Z,12.88
2018-05-16T00:47:39.842Z,12.88
2018-05-16T00:48:39.765Z,12.85
2018-05-16T00:49:39.691Z,12.91
2018-05-16T00:50:39.616Z,12.92
2018-05-16T00:51:39.542Z,12.92
2018-05-16T00:52:39.466Z,12.88
2018-05-16T00:53:39.394Z,12.91
2018-05-16T00:54:39.320Z,12.84
2018-05-16T00:55:39.244Z,12.73
2018-05-16T00:56:39.173Z,12.74
2018-05-16T00:57:39.095Z,12.77
2018-05-16T00:58:39.022Z,12.73
2018-05-16T00:59:38.947Z,12.82
2018-05-16T01:00:38.872Z,12.71
2018-05-16T01:01:38.797Z,12.66
2018-05-16T01:02:38.723Z,12.73
2018-05-16T01:03:38.797Z,12.74
2018-05-16T01:04:38.576Z,12.71
2018-05-16T01:05:38.500Z,12.77
2018-05-16T01:06:38.425Z,12.85
2018-05-16T01:07:38.350Z,12.82
2018-05-16T01:08:38.277Z,12.86
2018-05-16T01:09:38.201Z,12.91
2018-05-16T01:10:38.128Z,12.91
2018-05-16T01:11:38.052Z,12.85
2018-05-16T01:12:37.978Z,12.84
2018-05-16T01:13:37.905Z,12.96
2018-05-16T01:14:37.832Z,12.88
2018-05-16T01:15:37.754Z,12.85
2018-05-16T01:16:37.681Z,12.78
2018-05-16T01:17:37.608Z,12.85
2018-05-16T01:18:37.532Z,12.82
2018-05-16T01:19:37.456Z,12.82
2018-05-16T01:20:37.383Z,12.86
2018-05-16T01:21:37.311Z,12.78
2018-05-16T01:22:37.234Z,12.81
2018-05-16T01:23:37.159Z,12.86
2018-05-16T01:24:37.085Z,12.86
2018-05-16T01:25:37.012Z,12.82
2018-05-16T01:26:36.937Z,12.84
2018-05-16T01:27:36.861Z,12.81
2018-05-16T01:28:36.788Z,12.77
2018-05-16T01:29:36.862Z,12.66
2018-05-16T01:30:36.639Z,12.74
2018-05-16T01:31:36.565Z,12.69
2018-05-16T01:32:36.490Z,12.74
2018-05-16T01:33:36.415Z,12.73
2018-05-16T01:34:36.341Z,12.71
2018-05-16T01:35:36.266Z,12.85
2018-05-16T01:36:36.194Z,12.81
2018-05-16T01:37:36.118Z,12.82
2018-05-16T01:38:36.043Z,12.88
2018-05-16T01:39:35.970Z,12.91
2018-05-16T01:40:35.899Z,12.92
2018-05-16T01:41:35.820Z,12.85
2018-05-16T01:42:35.748Z,12.88
2018-05-16T01:43:35.672Z,12.91
2018-05-16T01:44:35.596Z,12.81
2018-05-16T01:45:35.523Z,12.81
2018-05-16T01:46:35.449Z,12.85
2018-05-16T01:47:35.374Z,12.81
2018-05-16T01:48:35.298Z,12.74
2018-05-16T01:49:35.230Z,12.70
2018-05-16T01:50:35.155Z,12.77
2018-05-16T01:51:35.076Z,12.74
2018-05-16T01:52:35.007Z,12.69
2018-05-16T01:53:34.928Z,12.79
2018-05-16T01:54:34.852Z,12.79
2018-05-16T01:55:34.777Z,12.70
2018-05-16T01:56:34.705Z,12.66
2018-05-16T01:57:34.629Z,12.74
2018-05-16T01:58:34.555Z,12.69
2018-05-16T01:59:34.479Z,12.77
2018-05-16T02:00:34.406Z,12.69
2018-05-16T02:01:34.331Z,12.69
2018-05-16T02:02:34.256Z,12.69
2018-05-16T02:03:34.182Z,12.78
2018-05-16T02:04:34.107Z,12.73
2018-05-16T02:05:34.034Z,12.73
2018-05-16T02:06:33.958Z,12.64
2018-05-16T02:07:33.887Z,12.78
2018-05-16T02:08:33.812Z,12.70
2018-05-16T02:09:33.735Z,12.70
2018-05-16T02:10:33.661Z,12.66
2018-05-16T02:11:33.585Z,12.70
2018-05-16T02:12:33.512Z,12.70
2018-05-16T02:13:33.437Z,12.73
2018-05-16T02:14:33.363Z,12.79
2018-05-16T02:15:33.290Z,12.78
2018-05-16T02:16:33.212Z,12.82
2018-05-16T02:17:33.141Z,12.77
2018-05-16T02:18:33.063Z,12.71
2018-05-16T02:19:32.992Z,12.71
2018-05-16T02:20:32.915Z,12.77
2018-05-16T02:21:32.839Z,12.74
2018-05-16T02:22:32.766Z,12.66
2018-05-16T02:23:32.691Z,12.77
2018-05-16T02:24:32.617Z,12.71
2018-05-16T02:25:32.541Z,12.74
2018-05-16T02:26:32.467Z,12.79
2018-05-16T02:27:32.392Z,12.63
2018-05-16T02:28:32.318Z,12.70
2018-05-16T02:29:32.243Z,12.67
2018-05-16T02:30:32.169Z,12.71
2018-05-16T02:31:32.095Z,12.63
2018-05-16T02:32:32.021Z,12.77
2018-05-16T02:33:31.965Z,12.63
2018-05-16T02:34:31.871Z,12.67
2018-05-16T02:35:31.796Z,12.73
2018-05-16T02:36:31.730Z,12.67
2018-05-16T02:37:31.741Z,12.77
2018-05-16T02:38:31.574Z,12.73
2018-05-16T02:39:31.498Z,12.85
2018-05-16T02:40:31.424Z,12.79
2018-05-16T02:41:31.349Z,12.77
2018-05-16T02:42:31.276Z,12.78
2018-05-16T02:43:31.201Z,12.71
2018-05-16T02:44:31.126Z,12.73
2018-05-16T02:45:31.057Z,12.69
2018-05-16T02:46:30.981Z,12.64
2018-05-16T02:47:31.090Z,12.67
2018-05-16T02:48:30.827Z,12.59
2018-05-16T02:49:30.752Z,12.79
2018-05-16T02:50:30.680Z,12.67
2018-05-16T02:51:30.603Z,12.73
2018-05-16T02:52:30.530Z,12.74
2018-05-16T02:53:30.473Z,12.71
2018-05-16T02:54:30.487Z,12.67
2018-05-16T02:55:30.306Z,12.73
2018-05-16T02:56:30.232Z,12.63
2018-05-16T02:57:30.157Z,12.66
2018-05-16T02:58:30.082Z,12.69
2018-05-16T02:59:30.006Z,12.77
2018-05-16T03:00:29.933Z,12.70
2018-05-16T03:01:29.857Z,12.78
2018-05-16T03:02:29.784Z,12.78
2018-05-16T03:03:29.709Z,12.64
2018-05-16T03:04:29.634Z,12.77
2018-05-16T03:05:29.561Z,12.73
2018-05-16T03:06:29.485Z,12.78
2018-05-16T03:07:29.410Z,12.77
2018-05-16T03:08:29.336Z,12.69
2018-05-16T03:09:29.262Z,12.71
2018-05-16T03:10:29.187Z,12.78
2018-05-16T03:11:29.117Z,12.66
2018-05-16T03:12:29.037Z,12.69
2018-05-16T03:13:28.962Z,12.67
2018-05-16T03:14:28.889Z,12.73
2018-05-16T03:15:28.814Z,12.70
2018-05-16T03:16:28.741Z,12.73
2018-05-16T03:17:28.664Z,12.74
2018-05-16T03:18:28.591Z,12.61
2018-05-16T03:19:28.515Z,12.67
2018-05-16T03:20:28.441Z,12.74
2018-05-16T03:21:28.371Z,12.67
2018-05-16T03:22:28.297Z,12.77
2018-05-16T03:23:28.217Z,12.79
2018-05-16T03:24:28.143Z,12.71
2018-05-16T03:25:28.067Z,12.74
2018-05-16T03:26:27.995Z,12.86
2018-05-16T03:27:27.918Z,12.74
2018-05-16T03:28:27.843Z,12.78
2018-05-16T03:29:27.771Z,12.82
2018-05-16T03:30:27.695Z,12.82
2018-05-16T03:31:27.621Z,12.85
2018-05-16T03:32:27.546Z,12.91
2018-05-16T03:33:27.472Z,12.88
2018-05-16T03:34:27.397Z,12.89
2018-05-16T03:35:27.324Z,12.89
2018-05-16T03:36:27.253Z,12.89
2018-05-16T03:37:27.174Z,12.86
2018-05-16T03:38:27.101Z,12.92
2018-05-16T03:39:27.024Z,12.86
2018-05-16T03:40:26.950Z,12.91
2018-05-16T03:41:26.877Z,12.91
2018-05-16T03:42:26.803Z,12.88
2018-05-16T03:43:26.727Z,12.86
2018-05-16T03:44:26.654Z,12.82
2018-05-16T03:45:26.584Z,12.86
2018-05-16T03:46:26.504Z,12.88
2018-05-16T03:47:26.429Z,12.89
2018-05-16T03:48:26.357Z,12.92
2018-05-16T03:49:26.286Z,12.92
2018-05-16T03:50:26.208Z,12.97
2018-05-16T03:51:26.133Z,12.96
2018-05-16T03:52:26.060Z,12.97
2018-05-16T03:53:25.985Z,13.00
2018-05-16T03:54:25.911Z,12.91
2018-05-16T03:55:25.835Z,12.85
2018-05-16T03:56:25.760Z,12.91
2018-05-16T03:57:25.689Z,12.96
2018-05-16T03:58:25.613Z,12.81
2018-05-16T03:59:25.539Z,12.99
2018-05-16T04:00:25.467Z,12.89
2018-05-16T04:01:25.389Z,12.82
2018-05-16T04:02:25.338Z,12.81
2018-05-16T04:03:25.240Z,12.78
2018-05-16T04:04:25.170Z,12.78
2018-05-16T04:05:25.093Z,12.85
2018-05-16T04:06:25.018Z,12.86
2018-05-16T04:07:24.943Z,12.88
2018-05-16T04:08:24.871Z,12.92
2018-05-16T04:09:24.794Z,12.88
2018-05-16T04:10:24.721Z,12.92
2018-05-16T04:11:24.647Z,12.89
2018-05-16T04:12:24.574Z,12.84
2018-05-16T04:13:24.559Z,12.88
2018-05-16T04:14:24.426Z,12.97
2018-05-16T04:15:24.347Z,12.88
2018-05-16T04:16:24.274Z,13.03
2018-05-16T04:17:24.200Z,13.04
2018-05-16T04:18:24.125Z,13.02
2018-05-16T04:19:24.050Z,12.94
2018-05-16T04:20:23.977Z,12.94
2018-05-16T04:21:23.903Z,12.88
2018-05-16T04:22:23.829Z,12.86
2018-05-16T04:23:23.753Z,12.94
2018-05-16T04:24:23.678Z,12.97
2018-05-16T04:25:23.606Z,12.99
2018-05-16T04:26:23.531Z,13.04
2018-05-16T04:27:23.456Z,12.99
2018-05-16T04:28:23.382Z,13.02
2018-05-16T04:29:23.308Z,12.97
2018-05-16T04:30:23.234Z,12.86
2018-05-16T04:31:23.159Z,12.85
2018-05-16T04:32:23.085Z,12.86
2018-05-16T04:33:23.012Z,12.91
2018-05-16T04:34:22.935Z,13.03
2018-05-16T04:35:22.861Z,13.03
2018-05-16T04:36:22.787Z,13.06
2018-05-16T04:37:22.712Z,13.09
2018-05-16T04:38:22.641Z,13.07
2018-05-16T04:39:22.564Z,13.14
2018-05-16T04:40:22.492Z,13.06
2018-05-16T04:41:22.415Z,13.07
2018-05-16T04:42:22.348Z,13.06
2018-05-16T04:43:22.267Z,13.02
2018-05-16T04:44:22.194Z,13.02
2018-05-16T04:45:22.118Z,12.99
2018-05-16T04:46:22.045Z,13.00
2018-05-16T04:47:21.969Z,13.09
2018-05-16T04:48:21.895Z,13.09
2018-05-16T04:49:21.823Z,13.04
2018-05-16T04:50:21.747Z,13.10
2018-05-16T04:51:21.673Z,13.09
2018-05-16T04:52:21.597Z,13.10
2018-05-16T04:53:21.524Z,13.06
2018-05-16T04:54:21.450Z,13.00
2018-05-16T04:55:21.378Z,13.02
2018-05-16T04:56:21.301Z,13.11
2018-05-16T04:57:21.227Z,13.07
2018-05-16T04:58:21.153Z,13.04
2018-05-16T04:59:21.077Z,13.06
2018-05-16T05:00:21.003Z,13.06
2018-05-16T05:01:20.930Z,13.14
2018-05-16T05:02:20.856Z,13.15
2018-05-16T05:03:20.781Z,13.11
2018-05-16T05:04:20.705Z,13.04
2018-05-16T05:05:20.632Z,13.17
2018-05-16T05:06:20.559Z,13.11
2018-05-16T05:07:20.483Z,13.04
2018-05-16T05:08:20.410Z,13.14
2018-05-16T05:09:20.340Z,13.11
2018-05-16T05:10:20.262Z,13.14
2018-05-16T05:11:20.188Z,13.22
2018-05-16T05:12:20.113Z,13.17
2018-05-16T05:13:20.039Z,13.24
2018-05-16T05:14:19.966Z,13.06
2018-05-16T05:15:19.891Z,13.07
2018-05-16T05:16:19.817Z,13.07
2018-05-16T05:17:19.744Z,13.10
2018-05-16T05:18:19.713Z,13.06
2018-05-16T05:19:19.595Z,13.07
2018-05-16T05:20:19.519Z,13.03
2018-05-16T05:21:19.447Z,13.04
2018-05-16T05:22:19.377Z,13.04
2018-05-16T05:23:19.299Z,13.07
2018-05-16T05:24:19.223Z,13.07
2018-05-16T05:25:19.151Z,13.03
2018-05-16T05:26:19.076Z,13.06
2018-05-16T05:27:19.000Z,13.09
2018-05-16T05:28:18.927Z,13.07
2018-05-16T05:29:18.852Z,13.04
2018-05-16T05:30:18.808Z,13.07
2018-05-16T05:31:18.704Z,13.02
2018-05-16T05:32:18.630Z,13.02
2018-05-16T05:33:18.556Z,13.04
2018-05-16T05:34:18.482Z,12.96
2018-05-16T05:35:18.407Z,13.02
2018-05-16T05:36:18.335Z,13.00
2018-05-16T05:37:18.257Z,13.00
2018-05-16T05:38:18.194Z,13.00
2018-05-16T05:39:18.109Z,12.97
2018-05-16T05:40:18.035Z,12.97
2018-05-16T05:41:17.962Z,13.02
2018-05-16T05:42:17.894Z,13.06
2018-05-16T05:43:17.833Z,13.10
2018-05-16T05:44:17.739Z,13.07
2018-05-16T05:45:17.663Z,13.10
2018-05-16T05:46:17.590Z,13.10
2018-05-16T05:47:17.514Z,13.15
2018-05-16T05:48:17.440Z,13.04
2018-05-16T05:49:17.405Z,13.03
2018-05-16T05:50:17.294Z,13.09
2018-05-16T05:51:17.217Z,13.06
2018-05-16T05:52:17.144Z,13.10
2018-05-16T05:53:17.069Z,13.09
2018-05-16T05:54:16.998Z,13.09
2018-05-16T05:55:16.920Z,13.04
2018-05-16T05:56:16.846Z,13.07
2018-05-16T05:57:16.772Z,13.04
2018-05-16T05:58:16.698Z,13.06
2018-05-16T05:59:16.622Z,13.00
2018-05-16T06:00:16.548Z,13.02
2018-05-16T06:01:16.475Z,13.06
2018-05-16T06:02:16.550Z,13.03
2018-05-16T06:03:16.324Z,13.04
2018-05-16T06:04:16.251Z,13.06
2018-05-16T06:05:16.177Z,13.06
2018-05-16T06:06:16.102Z,12.97
2018-05-16T06:07:16.031Z,13.00
2018-05-16T06:08:15.952Z,13.07
2018-05-16T06:09:15.886Z,13.11
2018-05-16T06:10:15.808Z,13.04
2018-05-16T06:11:15.730Z,13.06
2018-05-16T06:12:15.656Z,13.09
2018-05-16T06:13:15.580Z,13.09
2018-05-16T06:14:15.507Z,13.10
2018-05-16T06:15:15.432Z,13.07
2018-05-16T06:16:15.359Z,13.11
2018-05-16T06:17:15.283Z,13.07
2018-05-16T06:18:15.208Z,13.09
2018-05-16T06:19:15.133Z,13.06
2018-05-16T06:20:15.059Z,13.09
2018-05-16T06:21:14.986Z,13.03
2018-05-16T06:22:14.912Z,13.15
2018-05-16T06:23:14.837Z,13.07
2018-05-16T06:24:14.761Z,13.03
2018-05-16T06:25:14.688Z,13.06
2018-05-16T06:26:14.614Z,13.11
2018-05-16T06:27:14.566Z,13.21
2018-05-16T06:28:14.465Z,13.15
2018-05-16T06:29:14.389Z,13.07
2018-05-16T06:30:14.316Z,13.18
2018-05-16T06:31:14.244Z,13.18
2018-05-16T06:32:14.167Z,13.24
2018-05-16T06:33:14.093Z,13.21
2018-05-16T06:34:14.020Z,13.27
2018-05-16T06:35:13.944Z,13.19
2018-05-16T06:36:13.870Z,13.24
2018-05-16T06:37:13.795Z,13.27
2018-05-16T06:38:13.731Z,13.29
2018-05-16T06:39:13.739Z,13.43
2018-05-16T06:40:13.573Z,13.43
2018-05-16T06:41:13.499Z,13.44
2018-05-16T06:42:13.425Z,13.44
2018-05-16T06:43:13.350Z,13.44
2018-05-16T06:44:13.277Z,13.43
2018-05-16T06:45:13.202Z,13.50
2018-05-16T06:46:13.129Z,13.44
2018-05-16T06:47:13.053Z,13.53
2018-05-16T06:48:12.980Z,13.65
2018-05-16T06:49:12.905Z,13.53
2018-05-16T06:50:12.836Z,13.55
2018-05-16T06:51:12.757Z,13.59
2018-05-16T06:52:12.684Z,13.62
2018-05-16T06:53:12.610Z,13.66
2018-05-16T06:54:12.537Z,13.74
2018-05-16T06:55:12.461Z,13.80
2018-05-16T06:56:12.388Z,13.78
2018-05-16T06:57:12.315Z,13.70
2018-05-16T06:58:12.242Z,13.87
2018-05-16T06:59:12.267Z,13.80
2018-05-16T07:00:12.095Z,13.83
2018-05-16T07:01:12.020Z,13.87
2018-05-16T07:02:11.947Z,13.87
2018-05-16T07:03:11.872Z,13.86
2018-05-16T07:04:11.957Z,13.91
2018-05-16T07:05:11.724Z,13.94
2018-05-16T07:06:11.652Z,14.01
2018-05-16T07:07:11.577Z,14.05
2018-05-16T07:08:11.504Z,14.11
2018-05-16T07:09:11.431Z,14.14
2018-05-16T07:10:11.356Z,14.13
2018-05-16T07:11:11.282Z,14.21
2018-05-16T07:12:11.209Z,14.31
2018-05-16T07:13:11.136Z,14.28
2018-05-16T07:14:11.063Z,14.16
2018-05-16T07:15:10.989Z,14.29
2018-05-16T07:16:10.916Z,14.21
2018-05-16T07:17:10.843Z,14.35
2018-05-16T07:18:10.771Z,14.35
2018-05-16T07:19:10.695Z,14.35
2018-05-16T07:20:10.621Z,14.35
2018-05-16T07:21:10.550Z,14.35
2018-05-16T07:22:10.475Z,14.42
2018-05-16T07:23:10.400Z,14.60
2018-05-16T07:24:10.329Z,14.61
2018-05-16T07:25:10.256Z,14.69
2018-05-16T07:26:10.184Z,14.75
2018-05-16T07:27:10.112Z,14.68
2018-05-16T07:28:10.038Z,14.68
2018-05-16T07:29:09.964Z,14.79
2018-05-16T07:30:09.891Z,14.74
2018-05-16T07:31:09.818Z,14.69
2018-05-16T07:32:09.743Z,14.80
2018-05-16T07:33:09.671Z,14.74
2018-05-16T07:34:09.598Z,14.57
2018-05-16T07:35:09.529Z,14.60
2018-05-16T07:36:09.452Z,14.59
2018-05-16T07:37:09.403Z,14.64
2018-05-16T07:38:09.307Z,14.61
2018-05-16T07:39:09.233Z,14.64
2018-05-16T07:40:09.160Z,14.57
2018-05-16T07:41:09.109Z,14.67
2018-05-16T07:42:09.015Z,14.57
2018-05-16T07:43:08.942Z,14.59
2018-05-16T07:44:08.869Z,14.61
2018-05-16T07:45:08.795Z,14.72
2018-05-16T07:46:08.724Z,14.75
2018-05-16T07:47:08.683Z,14.67
2018-05-16T07:48:08.603Z,14.78
2018-05-16T07:49:08.502Z,14.78
2018-05-16T07:50:08.430Z,14.80
2018-05-16T07:51:08.387Z,14.95
2018-05-16T07:52:08.282Z,15.05
2018-05-16T07:53:08.211Z,15.15
2018-05-16T07:54:08.142Z,15.23
2018-05-16T07:55:08.065Z,15.31
2018-05-16T07:56:07.991Z,15.30
2018-05-16T07:57:07.923Z,15.35
2018-05-16T07:58:07.849Z,15.45
2018-05-16T07:59:07.775Z,15.59
2018-05-16T08:00:07.702Z,15.66
2018-05-16T08:01:07.629Z,15.57
2018-05-16T08:02:07.557Z,15.49
2018-05-16T08:03:07.495Z,15.45
2018-05-16T08:04:07.410Z,15.52
2018-05-16T08:05:07.339Z,15.42
2018-05-16T08:06:07.267Z,15.39
2018-05-16T08:07:07.192Z,15.30
2018-05-16T08:08:07.121Z,15.41
2018-05-16T08:09:07.049Z,15.23
2018-05-16T08:10:06.979Z,15.24
2018-05-16T08:11:06.902Z,15.10
2018-05-16T08:12:06.832Z,15.21
2018-05-16T08:13:06.759Z,15.21
2018-05-16T08:14:06.687Z,15.16
2018-05-16T08:15:06.619Z,15.21
2018-05-16T08:16:06.544Z,15.24
2018-05-16T08:17:06.471Z,15.26
2018-05-16T08:18:06.396Z,15.41
2018-05-16T08:19:06.323Z,15.23
2018-05-16T08:20:06.252Z,15.27
2018-05-16T08:21:06.179Z,15.28
2018-05-16T08:22:06.106Z,15.23
2018-05-16T08:23:06.036Z,15.24
2018-05-16T08:24:05.961Z,15.08
2018-05-16T08:25:05.889Z,15.06
2018-05-16T08:26:05.816Z,15.01
2018-05-16T08:27:05.742Z,14.98
2018-05-16T08:28:05.671Z,14.97
2018-05-16T08:29:05.599Z,14.91
2018-05-16T08:30:05.529Z,15.03
2018-05-16T08:31:05.540Z,15.05
2018-05-16T08:32:05.380Z,14.98
2018-05-16T08:33:05.309Z,14.95
2018-05-16T08:34:05.236Z,14.88
2018-05-16T08:35:05.162Z,14.72
2018-05-16T08:36:05.095Z,14.68
2018-05-16T08:37:05.018Z,14.60
2018-05-16T08:38:04.949Z,14.64
2018-05-16T08:39:04.872Z,14.71
2018-05-16T08:40:04.800Z,14.69
2018-05-16T08:41:04.728Z,14.71
2018-05-16T08:42:04.654Z,14.78
2018-05-16T08:43:04.629Z,14.68
2018-05-16T08:44:04.508Z,14.71
2018-05-16T08:45:04.439Z,14.68
2018-05-16T08:46:04.363Z,14.59
2018-05-16T08:47:04.289Z,14.64
2018-05-16T08:48:04.217Z,14.57
2018-05-16T08:49:04.145Z,14.50
2018-05-16T08:50:04.071Z,14.49
2018-05-16T08:51:03.997Z,14.41
2018-05-16T08:52:03.926Z,14.39
2018-05-16T08:53:03.852Z,14.35
2018-05-16T08:54:03.777Z,14.42
2018-05-16T08:55:03.704Z,14.32
2018-05-16T08:56:03.631Z,14.34
2018-05-16T08:57:03.556Z,14.41
2018-05-16T08:58:03.485Z,14.35
2018-05-16T08:59:03.411Z,14.46
2018-05-16T09:00:03.338Z,14.38
2018-05-16T09:01:03.264Z,14.32
2018-05-16T09:02:03.191Z,14.39
2018-05-16T09:03:03.116Z,14.36
2018-05-16T09:04:03.043Z,14.34
2018-05-16T09:05:02.970Z,14.38
2018-05-16T09:06:02.898Z,14.35
2018-05-16T09:07:02.823Z,14.39
2018-05-16T09:08:02.751Z,14.50
2018-05-16T09:09:02.679Z,14.44
2018-05-16T09:10:02.604Z,14.60
2018-05-16T09:11:02.533Z,14.57
2018-05-16T09:12:02.456Z,14.64
2018-05-16T09:13:02.383Z,14.59
2018-05-16T09:14:02.313Z,14.61
2018-05-16T09:15:02.237Z,14.74
2018-05-16T09:16:02.166Z,14.74
2018-05-16T09:17:02.091Z,14.67
2018-05-16T09:18:02.019Z,14.84
2018-05-16T09:19:01.945Z,14.83
2018-05-16T09:20:01.872Z,14.87
2018-05-16T09:21:01.800Z,14.93
2018-05-16T09:22:01.727Z,14.95
2018-05-16T09:23:01.653Z,15.01
2018-05-16T09:24:01.580Z,15.12
2018-05-16T09:25:01.608Z,15.10
2018-05-16T09:26:01.434Z,15.16
2018-05-16T09:27:01.361Z,15.15
2018-05-16T09:28:01.289Z,15.16
2018-05-16T09:29:01.216Z,15.23
2018-05-16T09:30:01.145Z,15.21
2018-05-16T09:31:01.072Z,15.15
2018-05-16T09:32:00.997Z,15.27
2018-05-16T09:33:00.925Z,15.35
2018-05-16T09:34:00.853Z,15.43
2018-05-16T09:35:00.778Z,15.52
2018-05-16T09:36:00.707Z,15.52
2018-05-16T09:37:00.635Z,15.71
2018-05-16T09:38:00.563Z,15.75
2018-05-16T09:39:00.489Z,15.76
2018-05-16T09:40:00.417Z,15.75
2018-05-16T09:41:00.345Z,15.63
2018-05-16T09:42:00.274Z,15.66
2018-05-16T09:43:00.200Z,15.60
2018-05-16T09:44:00.127Z,15.60
2018-05-16T09:45:00.058Z,15.59
2018-05-16T09:46:00.012Z,15.38
2018-05-16T09:46:59.912Z,15.45
2018-05-16T09:47:59.838Z,15.42
2018-05-16T09:48:59.767Z,15.48
2018-05-16T09:49:59.695Z,15.42
2018-05-16T09:50:59.621Z,15.49
2018-05-16T09:51:59.550Z,15.39
2018-05-16T09:52:59.477Z,15.43
2018-05-16T09:53:59.405Z,15.39
2018-05-16T09:54:59.332Z,15.60
2018-05-16T09:55:59.259Z,15.67
2018-05-16T09:56:59.188Z,15.66
2018-05-16T09:57:59.115Z,15.66
2018-05-16T09:58:59.043Z,15.63
2018-05-16T09:59:58.971Z,15.83
2018-05-16T10:00:58.899Z,15.89
2018-05-16T10:01:58.827Z,15.88
2018-05-16T10:02:58.754Z,15.97
2018-05-16T10:03:58.680Z,16.14
2018-05-16T10:04:58.609Z,16.27
2018-05-16T10:05:58.538Z,16.26
2018-05-16T10:06:58.465Z,16.29
2018-05-16T10:07:58.392Z,16.30
2018-05-16T10:08:58.321Z,16.29
2018-05-16T10:09:58.249Z,16.29
2018-05-16T10:10:58.177Z,16.53
2018-05-16T10:11:58.106Z,16.70
2018-05-16T10:12:58.033Z,16.63
2018-05-16T10:13:57.963Z,16.63
2018-05-16T10:14:57.889Z,16.59
2018-05-16T10:15:57.817Z,16.77
2018-05-16T10:16:57.758Z,16.95
2018-05-16T10:17:57.674Z,16.93
2018-05-16T10:18:57.602Z,16.95
2018-05-16T10:19:57.531Z,16.81
2018-05-16T10:20:57.461Z,16.56
2018-05-16T10:21:57.389Z,16.67
2018-05-16T10:22:57.319Z,16.70
2018-05-16T10:23:57.246Z,16.71
2018-05-16T10:24:57.176Z,16.71
2018-05-16T10:25:57.103Z,16.65
2018-05-16T10:26:57.031Z,16.71
2018-05-16T10:27:56.962Z,16.89
2018-05-16T10:28:56.891Z,16.95
2018-05-16T10:29:56.821Z,16.92
2018-05-16T10:30:56.748Z,16.59
2018-05-16T10:31:56.675Z,16.56
2018-05-16T10:32:56.606Z,16.57
2018-05-16T10:33:56.534Z,16.66
2018-05-16T10:34:56.463Z,16.95
2018-05-16T10:35:56.394Z,17.03
2018-05-16T10:36:56.320Z,16.84
2018-05-16T10:37:56.253Z,16.84
2018-05-16T10:38:56.177Z,16.89
2018-05-16T10:39:56.106Z,17.14
2018-05-16T10:40:56.034Z,17.11
2018-05-16T10:41:55.964Z,17.20
2018-05-16T10:42:55.894Z,17.28
2018-05-16T10:43:55.820Z,17.36
2018-05-16T10:44:55.751Z,17.26
2018-05-16T10:45:55.680Z,17.21
2018-05-16T10:46:55.609Z,17.20
2018-05-16T10:47:55.536Z,17.35
2018-05-16T10:48:55.466Z,17.46
2018-05-16T10:49:55.396Z,17.39
2018-05-16T10:50:55.325Z,17.20
2018-05-16T10:51:55.257Z,17.08
2018-05-16T10:52:55.183Z,17.15
2018-05-16T10:53:55.112Z,17.26
2018-05-16T10:54:55.043Z,17.29
2018-05-16T10:55:54.970Z,17.54
2018-05-16T10:56:54.900Z,17.48
2018-05-16T10:57:54.828Z,17.39
2018-05-16T10:58:54.757Z,17.69
2018-05-16T10:59:54.685Z,17.91
2018-05-16T11:00:54.616Z,17.91
2018-05-16T11:01:54.545Z,18.06
2018-05-16T11:02:54.474Z,18.13
2018-05-16T11:03:54.404Z,18.19
2018-05-16T11:04:54.333Z,18.22
2018-05-16T11:05:54.264Z,18.06
2018-05-16T11:06:54.193Z,17.74
2018-05-16T11:07:54.123Z,17.79
2018-05-16T11:08:54.053Z,17.76
2018-05-16T11:09:53.983Z,17.71
2018-05-16T11:10:53.911Z,17.89
2018-05-16T11:11:53.841Z,18.00
2018-05-16T11:12:53.772Z,18.00
2018-05-16T11:13:53.702Z,17.95
2018-05-16T11:14:53.633Z,18.21
2018-05-16T11:15:53.560Z,18.29
2018-05-16T11:16:53.490Z,18.34
2018-05-16T11:17:53.419Z,18.59
2018-05-16T11:18:53.349Z,18.67
2018-05-16T11:19:53.279Z,18.61
2018-05-16T11:20:53.209Z,18.68
2018-05-16T11:21:53.137Z,18.74
2018-05-16T11:22:53.068Z,19.05
2018-05-16T11:23:52.998Z,19.14
2018-05-16T11:24:52.931Z,19.13
2018-05-16T11:25:52.858Z,19.09
2018-05-16T11:26:52.788Z,19.32
2018-05-16T11:27:52.725Z,19.32
2018-05-16T11:28:52.647Z,19.43
2018-05-16T11:29:52.579Z,19.05
2018-05-16T11:30:52.508Z,19.08
2018-05-16T11:31:52.438Z,18.97
2018-05-16T11:32:52.368Z,18.98
2018-05-16T11:33:52.298Z,19.06
2018-05-16T11:34:52.228Z,19.27
2018-05-16T11:35:52.160Z,19.72
2018-05-16T11:36:52.090Z,19.75
2018-05-16T11:37:52.020Z,20.13
2018-05-16T11:38:51.950Z,19.75
2018-05-16T11:39:51.886Z,19.40
2018-05-16T11:40:51.810Z,19.36
2018-05-16T11:41:51.743Z,19.91
2018-05-16T11:42:51.673Z,20.86
2018-05-16T11:43:51.605Z,21.21
2018-05-16T11:44:51.535Z,20.87
2018-05-16T11:45:51.468Z,20.53
2018-05-16T11:46:51.399Z,20.91
2018-05-16T11:47:51.332Z,21.17
2018-05-16T11:48:51.362Z,21.69
2018-05-16T11:49:51.196Z,21.94
2018-05-16T11:50:51.129Z,21.51
2018-05-16T11:51:51.062Z,21.16
2018-05-16T11:52:51.001Z,20.86
2018-05-16T11:53:50.927Z,20.66
2018-05-16T11:54:50.861Z,20.86
2018-05-16T11:55:50.794Z,20.42
2018-05-16T11:56:50.729Z,20.57
2018-05-16T11:57:50.662Z,20.61
2018-05-16T11:58:50.592Z,20.19
2018-05-16T11:59:50.527Z,19.87
2018-05-16T12:00:50.460Z,19.71
2018-05-16T12:01:50.395Z,19.35
2018-05-16T12:02:50.355Z,19.24
2018-05-16T12:03:50.259Z,19.09
2018-05-16T12:04:50.191Z,18.95
2018-05-16T12:05:50.123Z,18.98
2018-05-16T12:06:50.055Z,18.94
2018-05-16T12:07:49.988Z,18.80
2018-05-16T12:08:49.919Z,18.74
2018-05-16T12:09:49.852Z,18.67
2018-05-16T12:10:49.781Z,18.74
2018-05-16T12:11:49.713Z,18.74
2018-05-16T12:12:49.645Z,18.71
2018-05-16T12:13:49.577Z,18.62
2018-05-16T12:14:49.576Z,18.74
2018-05-16T12:15:49.437Z,18.69
2018-05-16T12:16:49.370Z,18.69
2018-05-16T12:17:49.300Z,18.82
2018-05-16T12:18:49.229Z,18.79
2018-05-16T12:19:49.161Z,18.76
2018-05-16T12:20:49.091Z,18.89
2018-05-16T12:21:49.024Z,18.98
2018-05-16T12:22:48.953Z,19.02
2018-05-16T12:23:48.890Z,19.09
2018-05-16T12:24:48.813Z,19.14
2018-05-16T12:25:48.745Z,19.13
2018-05-16T12:26:48.673Z,19.27
2018-05-16T12:27:48.605Z,19.24
2018-05-16T12:28:48.537Z,19.24
2018-05-16T12:29:48.466Z,19.38
2018-05-16T12:30:48.396Z,19.61
2018-05-16T12:31:48.327Z,20.38
2018-05-16T12:32:48.258Z,20.90
2018-05-16T12:33:48.188Z,21.19
2018-05-16T12:34:48.120Z,21.33
2018-05-16T12:35:48.051Z,21.17
2018-05-16T12:36:47.983Z,20.94
2018-05-16T12:37:47.915Z,21.09
2018-05-16T12:38:47.846Z,21.35
2018-05-16T12:39:47.777Z,21.61
2018-05-16T12:40:47.711Z,21.11
2018-05-16T12:41:47.643Z,20.57
2018-05-16T12:42:47.575Z,20.38
2018-05-16T12:43:47.508Z,21.35
2018-05-16T12:44:47.440Z,22.12
2018-05-16T12:45:47.374Z,22.31
2018-05-16T12:46:47.306Z,23.00
2018-05-16T12:47:47.240Z,23.45
2018-05-16T12:48:47.174Z,23.61
2018-05-16T12:49:47.110Z,23.15
2018-05-16T12:50:47.048Z,22.72
2018-05-16T12:51:46.979Z,22.30